createdAt,value
2017-06-15T00:00:28.261Z,1000.05
2017-06-15T00:01:38.313Z,1000
2017-06-15T00:02:48.666Z,1000.02
2017-06-15T00:03:58.699Z,1000.01
2017-06-15T00:05:09.039Z,1000.02
2017-06-15T00:06:18.776Z,1000.05
2017-06-15T00:07:29.127Z,1000.05
2017-06-15T00:08:39.464Z,1000.03
2017-06-15T00:09:49.500Z,1000.07
2017-06-15T00:10:59.847Z,1000.07
2017-06-15T00:12:09.932Z,1000.06
2017-06-15T00:13:20.268Z,1000.07
2017-06-15T00:14:30.617Z,1000.03
2017-06-15T00:15:40.974Z,1000.02
2017-06-15T00:16:51.017Z,1000.02
2017-06-15T00:18:01.053Z,999.97
2017-06-15T00:19:11.099Z,1000.03
2017-06-15T00:20:20.807Z,999.98
2017-06-15T00:21:31.160Z,999.97
2017-06-15T00:22:41.527Z,1000
2017-06-15T00:23:51.927Z,1000
2017-06-15T00:25:02.275Z,1000.04
2017-06-15T00:26:12.621Z,1000.04
2017-06-15T00:27:22.671Z,1000.01
2017-06-15T00:28:33.016Z,1000
2017-06-15T00:29:43.386Z,1000.02
2017-06-15T00:30:53.728Z,1000.01
2017-06-15T00:32:04.084Z,999.99
2017-06-15T00:33:14.431Z,1000
2017-06-15T00:34:24.785Z,999.98
2017-06-15T00:35:35.185Z,1000
2017-06-15T00:36:45.229Z,999.98
2017-06-15T00:37:55.265Z,1000.04
2017-06-15T00:39:05.651Z,1000.01
2017-06-15T00:40:16.002Z,999.99
2017-06-15T00:41:26.089Z,1000.03
2017-06-15T00:42:36.436Z,1000
2017-06-15T00:43:46.789Z,1000
2017-06-15T00:44:56.822Z,999.97
2017-06-15T00:46:07.156Z,999.97
2017-06-15T00:47:17.517Z,999.97
2017-06-15T00:48:27.564Z,999.97
2017-06-15T00:49:37.601Z,999.96
2017-06-15T00:50:47.664Z,999.98
2017-06-15T00:51:58.018Z,999.99
2017-06-15T00:53:07.783Z,1000.01
2017-06-15T00:54:18.129Z,999.98
2017-06-15T00:55:28.475Z,999.99
2017-06-15T00:56:38.508Z,999.97
2017-06-15T00:57:48.858Z,1000
2017-06-15T00:58:59.249Z,1000.02
2017-06-15T01:00:09.278Z,1000.02
2017-06-15T01:01:19.634Z,1000.01
2017-06-15T01:02:29.987Z,999.97
2017-06-15T01:03:40.329Z,999.94
2017-06-15T01:04:50.671Z,999.94
2017-06-15T01:06:01.027Z,999.91
2017-06-15T01:07:11.084Z,999.96
2017-06-15T01:08:21.110Z,999.93
2017-06-15T01:09:31.446Z,999.89
2017-06-15T01:10:41.778Z,999.93
2017-06-15T01:11:51.808Z,999.9
2017-06-15T01:13:02.140Z,999.84
2017-06-15T01:14:12.488Z,999.84
2017-06-15T01:15:22.520Z,999.87
2017-06-15T01:16:32.599Z,999.87
2017-06-15T01:17:42.940Z,999.89
2017-06-15T01:18:53.291Z,999.91
2017-06-15T01:20:03.641Z,999.92
2017-06-15T01:21:13.968Z,999.96
2017-06-15T01:22:24.314Z,999.94
2017-06-15T01:23:34.337Z,999.97
2017-06-15T01:24:44.684Z,999.91
2017-06-15T01:25:54.721Z,999.91
2017-06-15T01:27:05.064Z,999.88
2017-06-15T01:28:15.445Z,999.87
2017-06-15T01:29:25.470Z,999.87
2017-06-15T01:30:35.510Z,999.83
2017-06-15T01:31:45.525Z,999.84
2017-06-15T01:32:55.872Z,999.87
2017-06-15T01:34:06.256Z,999.86
2017-06-15T01:35:16.594Z,999.84
2017-06-15T01:36:26.929Z,999.84
2017-06-15T01:37:37.274Z,999.88
2017-06-15T01:38:47.618Z,999.89
2017-06-15T01:39:58.016Z,999.84
2017-06-15T01:41:08.354Z,999.86
2017-06-15T01:42:18.697Z,999.86
2017-06-15T01:43:29.043Z,999.94
2017-06-15T01:44:39.398Z,999.89
2017-06-15T01:47:32.831Z,999.89
2017-06-15T01:48:42.985Z,999.88
2017-06-15T01:49:53.328Z,999.88
2017-06-15T01:51:03.670Z,999.87
2017-06-15T01:52:13.709Z,999.86
2017-06-15T01:53:24.109Z,999.91
2017-06-15T01:54:34.467Z,999.88
2017-06-15T01:55:44.807Z,999.9
2017-06-15T01:56:55.154Z,999.9
2017-06-15T01:58:05.507Z,999.98
2017-06-15T01:59:15.588Z,999.9
2017-06-15T02:00:25.614Z,999.92
2017-06-15T02:01:35.968Z,999.91
2017-06-15T02:02:46.304Z,999.9
2017-06-15T02:03:56.645Z,999.87
2017-06-15T02:05:06.674Z,999.85
2017-06-15T02:06:17.015Z,999.85
2017-06-15T02:07:27.351Z,999.87
2017-06-15T02:08:37.694Z,999.84
2017-06-15T02:09:48.039Z,999.86
2017-06-15T02:10:58.122Z,999.85
2017-06-15T02:12:07.849Z,999.85
2017-06-15T02:13:18.203Z,999.86
2017-06-15T02:14:28.611Z,999.84
2017-06-15T02:15:38.958Z,999.82
2017-06-15T02:16:49.358Z,999.84
2017-06-15T02:17:59.376Z,999.81
2017-06-15T02:19:09.715Z,999.83
2017-06-15T02:20:20.061Z,999.81
2017-06-15T02:21:30.393Z,999.85
2017-06-15T02:22:40.789Z,999.8
2017-06-15T02:23:51.132Z,999.82
2017-06-15T02:25:01.182Z,999.87
2017-06-15T02:26:11.529Z,999.87
2017-06-15T02:27:21.880Z,999.84
2017-06-15T02:28:31.957Z,999.86
2017-06-15T02:29:42.301Z,999.85
2017-06-15T02:30:52.647Z,999.82
2017-06-15T02:32:02.674Z,999.85
2017-06-15T02:33:12.391Z,999.81
2017-06-15T02:34:22.727Z,999.81
2017-06-15T02:35:32.458Z,999.83
2017-06-15T02:36:42.501Z,999.85
2017-06-15T02:37:51.918Z,999.85
2017-06-15T02:39:01.940Z,999.84
2017-06-15T02:40:12.014Z,999.88
2017-06-15T02:41:22.048Z,999.9
2017-06-15T02:42:32.394Z,999.91
2017-06-15T02:43:42.416Z,999.95
2017-06-15T02:44:52.763Z,999.94
2017-06-15T02:46:02.833Z,999.94
2017-06-15T02:47:13.177Z,999.96
2017-06-15T02:48:22.888Z,999.94
2017-06-15T02:49:32.910Z,999.95
2017-06-15T02:50:43.239Z,999.94
2017-06-15T02:51:53.623Z,999.98
2017-06-15T02:53:03.970Z,1000.02
2017-06-15T02:54:14.313Z,1000.01
2017-06-15T02:55:24.028Z,1000.03
2017-06-15T02:56:34.072Z,1000.04
2017-06-15T02:57:43.849Z,1000.04
2017-06-15T02:58:54.184Z,1000.05
2017-06-15T03:00:04.514Z,1000.03
2017-06-15T03:01:14.236Z,1000.06
2017-06-15T03:33:04.109Z,1000.54
2017-06-15T03:34:14.433Z,1000.55
2017-06-15T03:35:24.467Z,1000.55
2017-06-15T03:36:34.815Z,1000.54
2017-06-15T03:37:45.147Z,1000.52
2017-06-15T03:38:55.531Z,1000.54
2017-06-15T03:40:05.556Z,1000.52
2017-06-15T03:41:15.579Z,1000.49
2017-06-15T03:42:25.911Z,1000.47
2017-06-15T03:43:35.941Z,1000.42
2017-06-15T03:44:46.019Z,1000.45
2017-06-15T03:45:56.041Z,1000.45
2017-06-15T03:47:06.116Z,1000.46
2017-06-15T03:48:16.438Z,1000.48
2017-06-15T03:49:26.777Z,1000.48
2017-06-15T03:50:36.876Z,1000.48
2017-06-15T03:51:46.905Z,1000.47
2017-06-15T03:52:57.241Z,1000.46
2017-06-15T03:54:07.582Z,1000.43
2017-06-15T03:55:17.619Z,1000.45
2017-06-15T03:56:28.013Z,1000.45
2017-06-15T03:57:38.359Z,1000.46
2017-06-15T03:58:48.698Z,1000.44
2017-06-15T03:59:59.037Z,1000.49
2017-06-15T04:01:09.078Z,1000.54
2017-06-15T04:02:19.104Z,1000.53
2017-06-15T04:03:29.469Z,1000.54
2017-06-15T04:04:39.825Z,1000.53
2017-06-15T04:05:50.174Z,1000.49
2017-06-15T04:06:59.942Z,1000.52
2017-06-15T04:08:10.284Z,1000.53
2017-06-15T04:09:20.336Z,1000.52
2017-06-15T04:10:30.693Z,1000.55
2017-06-15T04:11:40.715Z,1000.55
2017-06-15T04:12:51.110Z,1000.53
2017-06-15T04:14:01.457Z,1000.56
2017-06-15T04:15:11.804Z,1000.55
2017-06-15T04:16:21.826Z,1000.53
2017-06-15T04:17:31.859Z,1000.59
2017-06-15T04:18:42.199Z,1000.92
2017-06-15T04:19:52.231Z,1001.31
2017-06-15T04:21:02.262Z,1001.39
2017-06-15T04:22:12.617Z,1001.58
2017-06-15T04:23:22.973Z,1001.7
2017-06-15T04:24:33.359Z,1001.63
2017-06-15T04:25:43.703Z,1001.63
2017-06-15T04:26:53.741Z,1001.71
2017-06-15T04:28:04.085Z,1001.79
2017-06-15T04:29:13.796Z,1001.87
2017-06-15T04:30:23.882Z,1001.71
2017-06-15T04:31:33.624Z,1001.57
2017-06-15T04:32:43.965Z,1001.6
2017-06-15T04:33:54.317Z,1001.69
2017-06-15T04:35:04.660Z,1001.66
2017-06-15T04:36:14.741Z,1001.55
2017-06-15T04:37:25.083Z,1001.46
2017-06-15T04:38:35.434Z,1001.44
2017-06-15T04:39:45.772Z,1001.31
2017-06-15T04:40:56.129Z,1001.25
2017-06-15T04:42:05.909Z,1001.24
2017-06-15T04:43:16.257Z,1001.2
2017-06-15T04:44:26.608Z,1001.17
2017-06-15T04:45:36.946Z,1001.15
2017-06-15T04:46:47.290Z,1001.14
2017-06-15T04:47:57.635Z,1001.19
2017-06-15T04:49:07.995Z,1001.2
2017-06-15T04:50:18.028Z,1001.19
2017-06-15T04:51:28.385Z,1001.16
2017-06-15T04:52:38.735Z,1001.17
2017-06-15T04:53:49.101Z,1001.26
2017-06-15T04:54:59.139Z,1001.27
2017-06-15T04:56:08.855Z,1001.27
2017-06-15T04:57:19.198Z,1001.29
2017-06-15T04:58:29.254Z,1001.29
2017-06-15T04:59:39.598Z,1001.33
2017-06-15T05:00:49.948Z,1001.43
2017-06-15T05:02:00.290Z,1001.44
2017-06-15T05:03:10.655Z,1001.44
2017-06-15T05:04:20.682Z,1001.49
2017-06-15T05:05:31.089Z,1001.58
2017-06-15T05:06:41.434Z,1001.63
2017-06-15T05:07:51.789Z,1001.65
2017-06-15T05:09:02.150Z,1001.6
2017-06-15T05:10:12.495Z,1001.46
2017-06-15T05:11:22.904Z,1001.4
2017-06-15T05:12:33.188Z,1001.34
2017-06-15T05:13:43.542Z,1001.31
2017-06-15T05:14:53.595Z,1001.26
2017-06-15T05:16:03.946Z,1001.23
2017-06-15T05:17:14.295Z,1001.2
2017-06-15T05:18:24.649Z,1001.19
2017-06-15T05:19:34.687Z,1001.23
2017-06-15T05:20:45.042Z,1001.23
2017-06-15T05:21:55.074Z,1001.25
2017-06-15T05:23:05.479Z,1001.31
2017-06-15T05:24:15.820Z,1001.36
2017-06-15T05:25:26.168Z,1001.37
2017-06-15T05:26:36.514Z,1001.38
2017-06-15T05:27:46.859Z,1001.4
2017-06-15T05:28:57.275Z,1001.45
2017-06-15T05:30:06.998Z,1001.43
2017-06-15T05:31:17.360Z,1001.41
2017-06-15T05:32:27.722Z,1001.42
2017-06-15T05:33:37.453Z,1001.46
2017-06-15T05:34:47.505Z,1001.46
2017-06-15T05:35:57.866Z,1001.44
2017-06-15T05:37:08.271Z,1001.44
2017-06-15T05:38:18.655Z,1001.38
2017-06-15T05:39:29.009Z,1001.36
2017-06-15T05:40:38.777Z,1001.34
2017-06-15T05:41:48.831Z,1001.33
2017-06-15T05:42:59.178Z,1001.3
2017-06-15T05:44:09.231Z,1001.29
2017-06-15T05:45:19.273Z,1001.29
2017-06-15T05:46:29.057Z,1001.22
2017-06-15T05:47:39.095Z,1001.31
2017-06-15T05:48:49.442Z,1001.27
2017-06-15T05:49:59.480Z,1001.3
2017-06-15T05:51:09.553Z,1001.31
2017-06-15T05:52:19.972Z,1001.29
2017-06-15T05:53:30.327Z,1001.27
2017-06-15T05:54:40.065Z,1001.28
2017-06-15T05:55:50.408Z,1001.37
2017-06-15T05:57:00.133Z,1001.4
2017-06-15T05:58:10.175Z,1001.36
2017-06-15T05:59:20.221Z,1001.37
2017-06-15T06:00:30.273Z,1001.37
2017-06-15T06:01:40.322Z,1001.39
2017-06-15T06:02:50.696Z,1001.38
2017-06-15T06:04:01.106Z,1001.4
2017-06-15T06:05:11.133Z,1001.38
2017-06-15T06:06:21.503Z,1001.43
2017-06-15T06:07:31.555Z,1001.34
2017-06-15T06:08:41.613Z,1001.38
2017-06-15T06:09:51.694Z,1001.4
2017-06-15T06:11:02.049Z,1001.36
2017-06-15T06:12:12.410Z,1001.39
2017-06-15T06:13:22.514Z,1001.66
2017-06-15T06:14:32.545Z,1001.94
2017-06-15T06:15:42.886Z,1002.02
2017-06-15T06:16:52.923Z,1001.84
2017-06-15T06:18:02.949Z,1001.68
2017-06-15T06:19:13.294Z,1001.6
2017-06-15T06:20:23.635Z,1001.53
2017-06-15T06:21:34.040Z,1001.59
2017-06-15T06:22:44.391Z,1001.69
2017-06-15T06:23:54.414Z,1001.71
2017-06-15T06:25:04.482Z,1001.63
2017-06-15T06:26:14.846Z,1001.68
2017-06-15T06:27:24.953Z,1001.66
2017-06-15T06:28:35.303Z,1001.54
2017-06-15T06:29:45.681Z,1001.52
2017-06-15T06:30:56.022Z,1001.6
2017-06-15T06:32:06.381Z,1001.54
2017-06-15T06:33:16.732Z,1001.53
2017-06-15T06:34:26.772Z,1001.45
2017-06-15T06:35:37.123Z,1001.41
2017-06-15T06:36:46.863Z,1001.46
2017-06-15T06:37:57.244Z,1001.41
2017-06-15T06:39:07.652Z,1001.35
2017-06-15T06:40:18.003Z,1001.38
2017-06-15T06:41:28.390Z,1001.35
2017-06-15T06:42:38.438Z,1001.35
2017-06-15T06:43:48.484Z,1001.36
2017-06-15T06:44:58.577Z,1001.32
2017-06-15T06:46:08.931Z,1001.3
2017-06-15T06:47:19.298Z,1001.31
2017-06-15T06:48:29.352Z,1001.28
2017-06-15T06:49:39.698Z,1001.26
2017-06-15T06:50:50.066Z,1001.28
2017-06-15T06:51:59.800Z,1001.2
2017-06-15T06:53:10.147Z,1001.2
2017-06-15T06:54:20.511Z,1001.17
2017-06-15T06:55:30.865Z,1001.17
2017-06-15T06:56:40.645Z,1001.12
2017-06-15T06:57:50.700Z,1001.11
2017-06-15T06:59:00.415Z,1001.09
2017-06-15T07:00:10.759Z,1001.11
2017-06-15T07:01:21.129Z,1001.15
2017-06-15T07:02:31.177Z,1001.13
2017-06-15T07:03:41.237Z,1001.08
2017-06-15T07:04:51.275Z,1001.12
2017-06-15T07:06:01.314Z,1001.09
2017-06-15T07:07:11.361Z,1001.09
2017-06-15T07:08:21.745Z,1001.12
2017-06-15T07:09:31.794Z,1001.12
2017-06-15T07:10:42.132Z,1001.11
2017-06-15T07:11:52.161Z,1001.09
2017-06-15T07:13:02.504Z,1001.05
2017-06-15T07:14:12.864Z,1001.06
2017-06-15T07:15:23.206Z,1001.06
2017-06-15T07:16:33.270Z,1001.02
2017-06-15T07:17:43.620Z,1001.09
2017-06-15T07:18:53.691Z,1001.03
2017-06-15T07:20:04.044Z,1001.03
2017-06-15T07:21:14.081Z,1001.06
2017-06-15T07:22:24.431Z,1001.07
2017-06-15T07:23:34.784Z,1001.02
2017-06-15T07:24:44.522Z,1001.02
2017-06-15T07:25:54.919Z,1001.02
2017-06-15T07:27:05.261Z,1001
2017-06-15T07:28:15.613Z,1001.01
2017-06-15T07:29:25.690Z,1001
2017-06-15T07:30:35.746Z,1001.01
2017-06-15T07:31:46.143Z,1000.99
2017-06-15T07:32:56.498Z,1001.03
2017-06-15T07:34:06.538Z,1001.03
2017-06-15T07:35:16.898Z,1001.03
2017-06-15T07:36:26.950Z,1001.05
2017-06-15T07:37:37.359Z,1001.05
2017-06-15T07:38:47.101Z,1001.05
2017-06-15T07:39:57.464Z,1001.05
2017-06-15T07:41:07.831Z,1000.97
2017-06-15T07:42:18.188Z,1000.97
2017-06-15T07:43:28.587Z,1000.99
2017-06-15T07:44:38.958Z,1000.97
2017-06-15T07:45:49.314Z,1000.96
2017-06-15T07:46:59.353Z,1000.99
2017-06-15T07:48:09.719Z,1000.98
2017-06-15T07:49:20.136Z,1000.94
2017-06-15T07:50:30.224Z,1000.92
2017-06-15T07:51:40.587Z,1000.95
2017-06-15T07:52:50.943Z,1000.94
2017-06-15T07:54:00.682Z,1000.93
2017-06-15T07:55:10.779Z,1000.93
2017-06-15T07:56:21.137Z,1000.93
2017-06-15T07:57:31.196Z,1000.94
2017-06-15T07:58:41.553Z,1000.87
2017-06-15T07:59:51.901Z,1000.9
2017-06-15T08:01:02.306Z,1000.95
2017-06-15T08:02:12.670Z,1000.91
2017-06-15T08:03:22.715Z,1000.9
2017-06-15T08:04:33.076Z,1000.86
2017-06-15T08:05:43.433Z,1000.89
2017-06-15T08:06:53.837Z,1000.93
2017-06-15T08:08:04.086Z,1000.92
2017-06-15T08:09:14.114Z,1000.92
2017-06-15T08:10:24.139Z,1000.95
2017-06-15T08:11:33.859Z,1000.98
2017-06-15T08:12:43.598Z,1000.95
2017-06-15T08:13:53.972Z,1000.97
2017-06-15T08:15:04.342Z,1000.95
2017-06-15T08:16:14.895Z,1000.96
2017-06-15T08:17:25.253Z,1000.93
2017-06-15T08:18:35.336Z,1000.92
2017-06-15T08:19:45.364Z,1000.92
2017-06-15T08:20:55.406Z,1000.92
2017-06-15T08:22:05.467Z,1000.94
2017-06-15T08:23:15.507Z,1000.94
2017-06-15T08:24:25.871Z,1000.91
2017-06-15T08:25:35.920Z,1000.92
2017-06-15T08:26:46.280Z,1000.9
2017-06-15T08:27:56.324Z,1000.89
2017-06-15T08:29:06.356Z,1000.89
2017-06-15T08:30:16.147Z,1000.91
2017-06-15T08:31:26.492Z,1000.89
2017-06-15T08:32:36.830Z,1000.93
2017-06-15T08:33:46.873Z,1000.89
2017-06-15T08:34:57.235Z,1000.92
2017-06-15T08:36:06.644Z,1000.86
2017-06-15T08:37:16.370Z,1000.89
2017-06-15T08:38:26.722Z,1000.86
2017-06-15T08:39:37.084Z,1000.88
2017-06-15T08:40:47.445Z,1000.86
2017-06-15T08:41:57.548Z,1000.84
2017-06-15T08:43:07.903Z,1000.84
2017-06-15T08:44:18.254Z,1000.84
2017-06-15T08:45:28.687Z,1000.86
2017-06-15T08:46:39.064Z,1000.82
2017-06-15T08:47:49.172Z,1000.82
2017-06-15T08:48:59.550Z,1000.82
2017-06-15T08:50:09.916Z,1000.87
2017-06-15T08:51:19.976Z,1000.86
2017-06-15T08:52:30.033Z,1000.84
2017-06-15T08:53:40.145Z,1000.85
2017-06-15T08:54:50.568Z,1000.83
2017-06-15T08:56:00.931Z,1000.83
2017-06-15T08:57:10.965Z,1000.83
2017-06-15T08:58:21.024Z,1000.86
2017-06-15T08:59:31.067Z,1000.85
2017-06-15T09:00:40.804Z,1000.84
2017-06-15T09:01:51.158Z,1000.87
2017-06-15T09:03:01.214Z,1000.84
2017-06-15T09:04:11.566Z,1000.87
2017-06-15T09:05:21.918Z,1000.87
2017-06-15T09:06:31.971Z,1000.89
2017-06-15T09:07:42.351Z,1000.88
2017-06-15T09:08:52.709Z,1000.89
2017-06-15T09:10:03.061Z,1000.87
2017-06-15T09:11:13.145Z,1000.89
2017-06-15T09:12:23.502Z,1000.9
2017-06-15T09:13:33.245Z,1000.93
2017-06-15T09:14:43.604Z,1000.91
2017-06-15T09:15:53.964Z,1000.88
2017-06-15T09:17:04.362Z,1000.89
2017-06-15T09:18:14.716Z,1000.94
2017-06-15T09:19:24.765Z,1000.89
2017-06-15T09:20:35.122Z,1000.92
2017-06-15T09:21:45.488Z,1000.89
2017-06-15T09:22:55.888Z,1000.92
2017-06-15T09:24:05.936Z,1000.89
2017-06-15T09:25:16.280Z,1000.88
2017-06-15T09:26:26.319Z,1000.85
2017-06-15T09:27:36.678Z,1000.82
2017-06-15T09:28:47.083Z,1000.86
2017-06-15T09:29:57.444Z,1000.86
2017-06-15T09:31:07.797Z,1000.9
2017-06-15T09:32:17.858Z,1000.89
2017-06-15T09:33:28.215Z,1000.9
2017-06-15T09:34:38.609Z,1000.87
2017-06-15T09:35:48.651Z,1000.84
2017-06-15T09:36:59.014Z,1000.85
2017-06-15T09:38:09.378Z,1000.83
2017-06-15T09:39:19.745Z,1000.82
2017-06-15T09:40:29.538Z,1000.8
2017-06-15T09:41:39.578Z,1000.81
2017-06-15T09:42:49.931Z,1000.8
2017-06-15T09:44:00.280Z,1000.8
2017-06-15T09:45:10.643Z,1000.86
2017-06-15T09:46:20.730Z,1000.79
2017-06-15T09:47:30.771Z,1000.77
2017-06-15T09:48:41.144Z,1000.77
2017-06-15T09:49:51.497Z,1000.76
2017-06-15T09:51:01.538Z,1000.75
2017-06-15T09:52:11.637Z,1000.78
2017-06-15T09:53:21.997Z,1000.76
2017-06-15T09:54:32.037Z,1000.71
2017-06-15T09:55:42.094Z,1000.74
2017-06-15T09:56:52.461Z,1000.72
2017-06-15T09:58:02.863Z,1000.73
2017-06-15T09:59:12.920Z,1000.73
2017-06-15T10:00:23.281Z,1000.74
2017-06-15T10:01:33.314Z,1000.73
2017-06-15T10:02:43.372Z,1000.68
2017-06-15T10:03:53.736Z,1000.68
2017-06-15T10:05:04.088Z,1000.66
2017-06-15T10:06:13.833Z,1000.64
2017-06-15T10:07:24.197Z,1000.62
2017-06-15T10:08:33.928Z,1000.63
2017-06-15T10:09:44.276Z,1000.65
2017-06-15T10:10:54.330Z,1000.59
2017-06-15T10:12:04.693Z,1000.65
2017-06-15T10:13:15.041Z,1000.59
2017-06-15T10:14:25.393Z,1000.6
2017-06-15T10:15:35.163Z,1000.58
2017-06-15T10:16:45.537Z,1000.59
2017-06-15T10:17:55.938Z,1000.58
2017-06-15T10:19:06.307Z,1000.58
2017-06-15T10:20:16.362Z,1000.57
2017-06-15T10:21:26.473Z,1000.55
2017-06-15T10:22:36.510Z,1000.55
2017-06-15T10:23:46.562Z,1000.49
2017-06-15T10:24:56.615Z,1000.51
2017-06-15T10:26:06.984Z,1000.53
2017-06-15T10:27:16.766Z,1000.45
2017-06-15T10:28:27.109Z,1000.51
2017-06-15T10:29:36.521Z,1000.46
2017-06-15T10:30:46.889Z,1000.43
2017-06-15T10:31:57.278Z,1000.46
2017-06-15T10:33:07.390Z,1000.43
2017-06-15T10:34:17.747Z,1000.45
2017-06-15T10:35:27.805Z,1000.42
2017-06-15T10:36:38.166Z,1000.42
2017-06-15T10:37:48.519Z,1000.43
2017-06-15T10:38:58.909Z,1000.44
2017-06-15T10:40:08.979Z,1000.4
2017-06-15T10:41:18.699Z,1000.39
2017-06-15T10:42:29.047Z,1000.38
2017-06-15T10:43:39.411Z,1000.34
2017-06-15T10:44:49.827Z,1000.35
2017-06-15T10:46:00.174Z,1000.35
2017-06-15T10:47:10.552Z,1000.33
2017-06-15T10:48:20.913Z,1000.31
2017-06-15T10:49:31.290Z,1000.29
2017-06-15T10:50:41.453Z,1000.23
2017-06-15T10:51:51.814Z,1000.27
2017-06-15T10:53:02.156Z,1000.25
2017-06-15T10:54:12.530Z,1000.22
2017-06-15T10:55:22.268Z,1000.22
2017-06-15T10:56:32.672Z,1000.24
2017-06-15T10:57:42.402Z,1000.2
2017-06-15T10:58:52.766Z,1000.21
2017-06-15T11:00:03.120Z,1000.2
2017-06-15T11:01:13.475Z,1000.2
2017-06-15T11:02:23.583Z,1000.19
2017-06-15T11:03:33.940Z,1000.17
2017-06-15T11:04:44.298Z,1000.18
2017-06-15T11:05:54.669Z,1000.18
2017-06-15T11:07:04.723Z,1000.2
2017-06-15T11:08:14.819Z,1000.18
2017-06-15T11:09:25.182Z,1000.21
2017-06-15T11:10:35.243Z,1000.18
2017-06-15T11:11:45.271Z,1000.19
2017-06-15T11:12:55.639Z,1000.16
2017-06-15T11:14:05.692Z,1000.18
2017-06-15T11:15:16.088Z,1000.19
2017-06-15T11:16:26.446Z,1000.18
2017-06-15T11:17:36.814Z,1000.16
2017-06-15T11:18:47.214Z,1000.12
2017-06-15T11:19:57.271Z,1000.11
2017-06-15T11:21:07.313Z,1000.13
2017-06-15T11:22:17.362Z,1000.09
2017-06-15T11:23:27.733Z,1000.07
2017-06-15T11:24:38.159Z,1000.05
2017-06-15T11:25:48.510Z,1000.06
2017-06-15T11:26:58.565Z,1000.08
2017-06-15T11:28:08.928Z,1000.1
2017-06-15T11:29:19.435Z,1000.08
2017-06-15T11:30:29.528Z,1000.08
2017-06-15T11:31:39.256Z,1000.02
2017-06-15T11:32:49.322Z,1000.02
2017-06-15T11:33:59.682Z,1000.01
2017-06-15T11:35:10.032Z,1000.01
2017-06-15T11:36:20.435Z,999.96
2017-06-15T11:37:30.488Z,999.97
2017-06-15T11:38:40.830Z,999.93
2017-06-15T11:39:50.872Z,999.94
2017-06-15T11:41:00.913Z,999.97
2017-06-15T11:42:11.315Z,999.9
2017-06-15T11:43:21.685Z,999.91
2017-06-15T11:44:32.048Z,999.9
2017-06-15T11:45:42.395Z,999.94
2017-06-15T11:46:52.134Z,999.88
2017-06-15T11:48:02.538Z,999.85
2017-06-15T11:49:12.585Z,999.85
2017-06-15T11:50:22.960Z,999.88
2017-06-15T11:51:33.039Z,999.84
2017-06-15T11:52:43.390Z,999.83
2017-06-15T11:53:53.489Z,999.81
2017-06-15T11:55:03.849Z,999.83
2017-06-15T11:56:13.906Z,999.8
2017-06-15T11:57:24.269Z,999.81
2017-06-15T11:58:34.641Z,999.78
2017-06-15T11:59:44.742Z,999.8
2017-06-15T12:00:55.079Z,999.81
2017-06-15T12:02:05.436Z,999.77
2017-06-15T12:03:15.509Z,999.68
2017-06-15T12:04:25.867Z,999.68
2017-06-15T12:05:36.113Z,999.68
2017-06-15T12:06:46.462Z,999.64
2017-06-15T12:07:56.838Z,999.68
2017-06-15T12:09:07.218Z,999.71
2017-06-15T12:10:17.277Z,999.68
2017-06-15T12:11:27.329Z,999.67
2017-06-15T12:12:37.684Z,999.68
2017-06-15T12:13:48.034Z,999.64
2017-06-15T12:14:58.101Z,999.64
2017-06-15T12:16:08.456Z,999.65
2017-06-15T12:17:18.875Z,999.61
2017-06-15T12:18:29.235Z,999.58
2017-06-15T12:19:39.585Z,999.6
2017-06-15T12:20:49.638Z,999.55
2017-06-15T12:22:00.002Z,999.55
2017-06-15T12:23:09.777Z,999.59
2017-06-15T12:24:20.132Z,999.58
2017-06-15T12:25:30.490Z,999.51
2017-06-15T12:26:40.857Z,999.52
2017-06-15T12:27:51.221Z,999.53
2017-06-15T12:29:01.316Z,999.5
2017-06-15T12:30:11.689Z,999.49
2017-06-15T12:31:22.060Z,999.43
2017-06-15T12:32:32.423Z,999.44
2017-06-15T12:33:42.789Z,999.43
2017-06-15T12:34:52.889Z,999.38
2017-06-15T12:36:03.257Z,999.41
2017-06-15T12:37:13.614Z,999.33
2017-06-15T12:38:23.976Z,999.34
2017-06-15T12:39:34.333Z,999.32
2017-06-15T12:40:44.740Z,999.36
2017-06-15T12:41:54.786Z,999.37
2017-06-15T12:43:05.153Z,999.32
2017-06-15T12:44:15.530Z,999.29
2017-06-15T12:45:25.582Z,999.28
2017-06-15T12:46:35.942Z,999.3
2017-06-15T12:47:46.308Z,999.24
2017-06-15T12:48:56.675Z,999.22
2017-06-15T12:50:07.063Z,999.24
2017-06-15T12:51:17.106Z,999.25
2017-06-15T12:52:27.222Z,999.23
2017-06-15T12:53:37.265Z,999.24
2017-06-15T12:54:47.630Z,999.26
2017-06-15T12:55:57.672Z,999.21
2017-06-15T12:57:08.038Z,999.19
2017-06-15T12:58:18.391Z,999.19
2017-06-15T12:59:28.754Z,999.17
2017-06-15T13:00:38.804Z,999.17
2017-06-15T13:01:48.856Z,999.13
2017-06-15T13:02:58.897Z,999.12
2017-06-15T13:04:09.330Z,999.15
2017-06-15T13:05:19.377Z,999.11
2017-06-15T13:06:29.770Z,999.14
2017-06-15T13:07:40.129Z,999.12
2017-06-15T13:08:50.477Z,999.09
2017-06-15T13:10:00.892Z,999.09
2017-06-15T13:11:11.244Z,999.07
2017-06-15T13:12:21.293Z,999.07
2017-06-15T13:13:31.354Z,999.06
2017-06-15T13:14:41.716Z,999.04
2017-06-15T13:15:52.130Z,999.04
2017-06-15T13:17:02.499Z,999.04
2017-06-15T13:18:12.861Z,999.06
2017-06-15T13:19:23.211Z,999.07
2017-06-15T13:20:33.250Z,999.07
2017-06-15T13:21:43.626Z,999.04
2017-06-15T13:22:53.989Z,999.06
2017-06-15T13:24:04.338Z,999.04
2017-06-15T13:25:14.682Z,999.01
2017-06-15T13:26:25.057Z,998.99
2017-06-15T13:27:35.156Z,998.99
2017-06-15T13:28:45.204Z,998.96
2017-06-15T13:29:55.573Z,998.96
2017-06-15T13:31:04.995Z,998.92
2017-06-15T13:32:15.034Z,998.86
2017-06-15T13:33:25.444Z,998.93
2017-06-15T13:34:35.833Z,998.89
2017-06-15T13:35:46.203Z,998.88
2017-06-15T13:36:56.588Z,998.89
2017-06-15T13:38:06.944Z,998.89
2017-06-15T13:39:17.347Z,998.91
2017-06-15T13:40:27.745Z,998.9
2017-06-15T13:41:38.115Z,998.88
2017-06-15T13:42:48.179Z,998.84
2017-06-15T13:43:58.565Z,998.93
2017-06-15T13:45:08.984Z,998.91
2017-06-15T13:46:19.359Z,998.89
2017-06-15T13:47:29.720Z,998.88
2017-06-15T13:48:40.084Z,998.84
2017-06-15T13:49:50.455Z,998.81
2017-06-15T13:51:00.560Z,998.85
2017-06-15T13:52:10.614Z,998.85
2017-06-15T13:53:20.655Z,998.84
2017-06-15T13:54:30.717Z,998.78
2017-06-15T13:55:41.092Z,998.81
2017-06-15T13:56:51.169Z,998.76
2017-06-15T13:58:01.211Z,998.78
2017-06-15T13:59:11.258Z,998.8
2017-06-15T14:00:21.594Z,998.77
2017-06-15T14:01:31.961Z,998.73
2017-06-15T14:02:42.075Z,998.75
2017-06-15T14:03:51.816Z,998.71
2017-06-15T14:05:02.179Z,998.71
2017-06-15T14:06:12.553Z,998.74
2017-06-15T14:07:22.900Z,998.69
2017-06-15T14:08:33.251Z,998.71
2017-06-15T14:09:43.289Z,998.71
2017-06-15T14:10:53.646Z,998.66
2017-06-15T14:12:03.691Z,998.7
2017-06-15T14:13:14.067Z,998.67
2017-06-15T14:14:24.483Z,998.72
2017-06-15T14:15:34.842Z,998.68
2017-06-15T14:16:44.899Z,998.7
2017-06-15T14:17:54.970Z,998.65
2017-06-15T14:19:05.342Z,998.65
2017-06-15T14:20:15.760Z,998.65
2017-06-15T14:21:26.106Z,998.65
2017-06-15T14:22:36.488Z,998.65
2017-06-15T14:23:46.852Z,998.64
2017-06-15T14:24:57.212Z,998.64
2017-06-15T14:26:07.313Z,998.62
2017-06-15T14:27:17.709Z,998.6
2017-06-15T14:28:28.242Z,998.61
2017-06-15T14:29:38.595Z,998.59
2017-06-15T14:30:48.960Z,998.59
2017-06-15T14:31:59.069Z,998.59
2017-06-15T14:33:09.438Z,998.58
2017-06-15T14:34:19.797Z,998.56
2017-06-15T14:35:30.169Z,998.56
2017-06-15T14:36:40.552Z,998.56
2017-06-15T14:37:50.354Z,998.54
2017-06-15T14:39:00.740Z,998.5
2017-06-15T14:40:11.107Z,998.48
2017-06-15T14:41:21.463Z,998.43
2017-06-15T14:42:31.848Z,998.43
2017-06-15T14:43:41.905Z,998.47
2017-06-15T14:44:52.278Z,998.48
2017-06-15T14:46:02.654Z,998.49
2017-06-15T14:47:13.014Z,998.48
2017-06-15T14:48:23.367Z,998.47
2017-06-15T14:49:33.772Z,998.46
2017-06-15T14:50:44.122Z,998.45
2017-06-15T14:51:54.483Z,998.45
2017-06-15T14:53:04.226Z,998.41
2017-06-15T14:54:14.591Z,998.42